地図

経路データ

SID SEASON NUMBER BASIN SUBBASIN NAME ISO_TIME NATURE LAT LON WMO_WIND WMO_PRES WMO_AGENCY TRACK_TYPE DIST2LAND LANDFALL IFLAG USA_AGENCY USA_ATCF_ID USA_LAT USA_LON USA_RECORD USA_STATUS USA_WIND USA_PRES USA_SSHS USA_R34_NE USA_R34_SE USA_R34_SW USA_R34_NW USA_R50_NE USA_R50_SE USA_R50_SW USA_R50_NW USA_R64_NE USA_R64_SE USA_R64_SW USA_R64_NW USA_POCI USA_ROCI USA_RMW USA_EYE TOKYO_LAT TOKYO_LON TOKYO_GRADE TOKYO_WIND TOKYO_PRES TOKYO_R50_DIR TOKYO_R50_LONG TOKYO_R50_SHORT TOKYO_R30_DIR TOKYO_R30_LONG TOKYO_R30_SHORT TOKYO_LAND CMA_LAT CMA_LON CMA_CAT CMA_WIND CMA_PRES HKO_LAT HKO_LON HKO_CAT HKO_WIND HKO_PRES NEWDELHI_LAT NEWDELHI_LON NEWDELHI_GRADE NEWDELHI_WIND NEWDELHI_PRES NEWDELHI_CI NEWDELHI_DP NEWDELHI_POCI REUNION_LAT REUNION_LON REUNION_TYPE REUNION_WIND REUNION_PRES REUNION_TNUM REUNION_CI REUNION_RMW REUNION_R34_NE REUNION_R34_SE REUNION_R34_SW REUNION_R34_NW REUNION_R50_NE REUNION_R50_SE REUNION_R50_SW REUNION_R50_NW REUNION_R64_NE REUNION_R64_SE REUNION_R64_SW REUNION_R64_NW BOM_LAT BOM_LON BOM_TYPE BOM_WIND BOM_PRES BOM_TNUM BOM_CI BOM_RMW BOM_R34_NE BOM_R34_SE BOM_R34_SW BOM_R34_NW BOM_R50_NE BOM_R50_SE BOM_R50_SW BOM_R50_NW BOM_R64_NE BOM_R64_SE BOM_R64_SW BOM_R64_NW BOM_ROCI BOM_POCI BOM_EYE BOM_POS_METHOD BOM_PRES_METHOD NADI_LAT NADI_LON NADI_CAT NADI_WIND NADI_PRES WELLINGTON_LAT WELLINGTON_LON WELLINGTON_WIND WELLINGTON_PRES DS824_LAT DS824_LON DS824_STAGE DS824_WIND DS824_PRES TD9636_LAT TD9636_LON TD9636_STAGE TD9636_WIND TD9636_PRES TD9635_LAT TD9635_LON TD9635_WIND TD9635_PRES TD9635_ROCI NEUMANN_LAT NEUMANN_LON NEUMANN_CLASS NEUMANN_WIND NEUMANN_PRES MLC_LAT MLC_LON MLC_CLASS MLC_WIND MLC_PRES USA_GUST BOM_GUST BOM_GUST_PER REUNION_GUST REUNION_GUST_PER USA_SEAHGT USA_SEARAD_NE USA_SEARAD_SE USA_SEARAD_SW USA_SEARAD_NW STORM_SPEED STORM_DIR
1949080S18115 1949 21 SI WA NOT_NAMED 1949-03-21 06:00:00 NR -18.2000 115.100 main 316 300 _____O________ -1 -18.2000 115.100 99 9.90000 10 223
1949080S18115 1949 21 SI WA NOT_NAMED 1949-03-21 09:00:00 NR -18.5479 114.758 main 305 285 _____P________ -1 -18.5479 114.758 99 10 223
1949080S18115 1949 21 SI WA NOT_NAMED 1949-03-21 12:00:00 NR -18.8968 114.422 main 291 276 _____P________ -1 -18.8968 114.422 99 9 222
1949080S18115 1949 21 SI WA NOT_NAMED 1949-03-21 15:00:00 NR -19.2481 114.097 main 283 258 _____P________ -1 -19.2481 114.097 99 9 220
1949080S18115 1949 21 SI WA NOT_NAMED 1949-03-21 18:00:00 NR -19.6036 113.792 main 258 227 _____P________ -1 -19.6036 113.792 99 9 218
1949080S18115 1949 21 SI WA NOT_NAMED 1949-03-21 21:00:00 NR -19.9648 113.513 main 218 193 _____P________ -1 -19.9648 113.513 99 9 214
1949080S18115 1949 21 SI WA NOT_NAMED 1949-03-22 00:00:00 NR -20.3334 113.266 main 193 163 _____P________ -1 -20.3334 113.266 99 9 210
1949080S18115 1949 21 SI WA NOT_NAMED 1949-03-22 03:00:00 NR -20.7112 113.060 main 163 144 _____P________ -1 -20.7112 113.060 99 8 204
1949080S18115 1949 21 SI WA NOT_NAMED 1949-03-22 06:00:00 NR -21.1000 112.900 main 144 131 _____O________ -1 -21.1000 112.900 99 9.90000 8 198
1949080S18115 1949 21 SI WA NOT_NAMED 1949-03-22 09:00:00 NR -21.4999 112.792 main 131 121 _____P________ -1 -21.4999 112.792 99 8 191
1949080S18115 1949 21 SI WA NOT_NAMED 1949-03-22 12:00:00 NR -21.9049 112.730 main 121 98 _____P________ -1 -21.9049 112.730 99 8 186
1949080S18115 1949 21 SI WA NOT_NAMED 1949-03-22 15:00:00 NR -22.3070 112.707 main 98 92 _____P________ -1 -22.3070 112.707 99 8 0
1949080S18115 1949 21 SI WA NOT_NAMED 1949-03-22 18:00:00 NR -22.6985 112.715 main 92 92 _____P________ -1 -22.6985 112.715 99 8 178
1949080S18115 1949 21 SI WA NOT_NAMED 1949-03-22 21:00:00 NR -23.0714 112.747 main 107 90 _____P________ -1 -23.0714 112.747 99 7 174
1949080S18115 1949 21 SI WA NOT_NAMED 1949-03-23 00:00:00 NR -23.4180 112.793 main 90 74 _____P________ -1 -23.4180 112.793 99 7 172
1949080S18115 1949 21 SI WA NOT_NAMED 1949-03-23 03:00:00 NR -23.7301 112.847 main 74 60 _____P________ -1 -23.7301 112.847 99 6 171
1949080S18115 1949 21 SI WA NOT_NAMED 1949-03-23 06:00:00 NR -24.0000 112.900 main 60 55 _____O________ -1 -24.0000 112.900 99 9.90000 5 175
1949080S18115 1949 21 SI WA NOT_NAMED 1949-03-23 09:00:00 NR -24.2032 112.884 main 55 50 _____P________ -1 -24.2032 112.884 99 4 187
1949080S18115 1949 21 SI WA NOT_NAMED 1949-03-23 12:00:00 NR -24.3640 112.867 main 50 50 _____P________ -1 -24.3640 112.867 99 3 184
1949080S18115 1949 21 SI WA NOT_NAMED 1949-03-23 15:00:00 NR -24.4906 112.857 main 51 51 _____P________ -1 -24.4906 112.857 99 2 0
1949080S18115 1949 21 SI WA NOT_NAMED 1949-03-23 18:00:00 NR -24.5913 112.859 main 55 55 _____P________ -1 -24.5913 112.859 99 2 172
1949080S18115 1949 21 SI WA NOT_NAMED 1949-03-23 21:00:00 NR -24.6744 112.878 main 60 60 _____P________ -1 -24.6744 112.878 99 2 159
1949080S18115 1949 21 SI WA NOT_NAMED 1949-03-24 00:00:00 NR -24.7480 112.921 main 60 60 _____P________ -1 -24.7480 112.921 99 2 144
1949080S18115 1949 21 SI WA NOT_NAMED 1949-03-24 03:00:00 NR -24.8205 112.993 main 60 50 _____P________ -1 -24.8205 112.993 99 2 133
1949080S18115 1949 21 SI WA NOT_NAMED 1949-03-24 06:00:00 NR -24.9000 113.100 main 50 32 _____O________ -1 -24.9000 113.100 99 9.90000 3 129
1949080S18115 1949 21 SI WA NOT_NAMED 1949-03-24 09:00:00 NR -25.0366 113.284 main 32 20 _____P________ -1 -25.0366 113.284 99 5 127
1949080S18115 1949 21 SI WA NOT_NAMED 1949-03-24 12:00:00 NR -25.1771 113.508 main 23 15 _____P________ -1 -25.1771 113.508 99 5 123
1949080S18115 1949 21 SI WA NOT_NAMED 1949-03-24 15:00:00 NR -25.3178 113.758 main 10 0 _____P________ -1 -25.3178 113.758 99 5 121
1949080S18115 1949 21 SI WA NOT_NAMED 1949-03-24 18:00:00 NR -25.4551 114.025 main 0 0 _____P________ -1 -25.4551 114.025 99 6 119
1949080S18115 1949 21 SI WA NOT_NAMED 1949-03-24 21:00:00 NR -25.5855 114.294 main 0 0 _____P________ -1 -25.5855 114.294 99 5 118
1949080S18115 1949 21 SI WA NOT_NAMED 1949-03-25 00:00:00 NR -25.7053 114.555 main 0 0 _____P________ -1 -25.7053 114.555 99 5 117
1949080S18115 1949 21 SI WA NOT_NAMED 1949-03-25 03:00:00 NR -25.8112 114.794 main 0 0 _____P________ -1 -25.8112 114.794 99 4 116
1949080S18115 1949 21 SI WA NOT_NAMED 1949-03-25 06:00:00 NR -25.9000 115.000 main 0 0 _____O________ -1 -25.9000 115.000 99 9.90000 4 116
1949080S18115 1949 21 SI WA NOT_NAMED 1949-03-25 09:00:00 NR -25.9693 115.163 main 0 0 _____P________ -1 -25.9693 115.163 99 3 115
1949080S18115 1949 21 SI WA NOT_NAMED 1949-03-25 12:00:00 NR -26.0207 115.286 main 0 0 _____P________ -1 -26.0207 115.286 99 2 115
1949080S18115 1949 21 SI WA NOT_NAMED 1949-03-25 15:00:00 NR -26.0570 115.375 main 0 0 _____P________ -1 -26.0570 115.375 99 1 115
1949080S18115 1949 21 SI WA NOT_NAMED 1949-03-25 18:00:00 NR -26.0807 115.434 main 0 0 _____P________ -1 -26.0807 115.434 99 1 113
1949080S18115 1949 21 SI WA NOT_NAMED 1949-03-25 21:00:00 NR -26.0943 115.471 main 0 0 _____P________ -1 -26.0943 115.471 99 1 111
1949080S18115 1949 21 SI WA NOT_NAMED 1949-03-26 00:00:00 NR -26.1004 115.490 main 0 0 _____P________ -1 -26.1004 115.490 99 0 0
1949080S18115 1949 21 SI WA NOT_NAMED 1949-03-26 03:00:00 NR -26.1014 115.498 main 0 0 _____P________ -1 -26.1014 115.498 99 0 0
1949080S18115 1949 21 SI WA NOT_NAMED 1949-03-26 06:00:00 NR -26.1000 115.500 main 0 _____O________ -1 -26.1000 115.500 99 9.90000 0 0

IBTrACS Databaseについて

本データベースは、米国NOAAが公開する1842年以降の世界の熱帯低気圧のベストトラックデータアーカイブInternational Best Track Archive for Climate Stewardship (IBTrACS)を、ウェブで閲覧しやすい形式に変換したものです。

最終更新日:2021-10-21